sensor_id;sensor_type;location;lat;lon;timestamp;pressure;altitude;pressure_sealevel;temperature;humidity
11878;BME280;5998;42.676;23.268;2023-02-22T00:01:09;94779.44;;;9.27;73.64
11878;BME280;5998;42.676;23.268;2023-02-22T00:03:47;94775.75;;;9.20;74.48
11878;BME280;5998;42.676;23.268;2023-02-22T00:06:16;94774.59;;;9.09;76.26
11878;BME280;5998;42.676;23.268;2023-02-22T00:08:43;94758.34;;;8.84;78.47
11878;BME280;5998;42.676;23.268;2023-02-22T00:11:12;94780.41;;;8.90;82.27
11878;BME280;5998;42.676;23.268;2023-02-22T00:13:40;94787.13;;;8.84;84.98
11878;BME280;5998;42.676;23.268;2023-02-22T00:16:12;94784.97;;;8.77;83.18
11878;BME280;5998;42.676;23.268;2023-02-22T00:18:40;94782.19;;;8.65;83.16
11878;BME280;5998;42.676;23.268;2023-02-22T00:21:09;94782.53;;;8.64;83.97
11878;BME280;5998;42.676;23.268;2023-02-22T00:23:39;94781.94;;;8.58;85.24
11878;BME280;5998;42.676;23.268;2023-02-22T00:26:11;94779.13;;;8.55;88.06
11878;BME280;5998;42.676;23.268;2023-02-22T00:28:40;94781.69;;;8.51;89.67
11878;BME280;5998;42.676;23.268;2023-02-22T00:31:07;94774.75;;;8.50;88.43
11878;BME280;5998;42.676;23.268;2023-02-22T00:33:34;94778.72;;;8.44;88.73
11878;BME280;5998;42.676;23.268;2023-02-22T00:36:01;94758.47;;;8.26;88.89
11878;BME280;5998;42.676;23.268;2023-02-22T00:38:28;94769.50;;;8.33;88.98
11878;BME280;5998;42.676;23.268;2023-02-22T00:40:54;94771.59;;;8.27;91.67
11878;BME280;5998;42.676;23.268;2023-02-22T00:43:21;94761.38;;;8.21;92.43
11878;BME280;5998;42.676;23.268;2023-02-22T00:45:50;94771.50;;;8.15;92.04
11878;BME280;5998;42.676;23.268;2023-02-22T00:48:18;94761.41;;;8.12;91.88
11878;BME280;5998;42.676;23.268;2023-02-22T00:50:45;94750.09;;;8.07;91.49
11878;BME280;5998;42.676;23.268;2023-02-22T00:53:13;94749.75;;;8.08;91.68
11878;BME280;5998;42.676;23.268;2023-02-22T00:55:40;94757.00;;;8.08;97.04
11878;BME280;5998;42.676;23.268;2023-02-22T00:58:07;94736.69;;;8.07;94.00
11878;BME280;5998;42.676;23.268;2023-02-22T01:00:36;94748.78;;;8.13;92.24
11878;BME280;5998;42.676;23.268;2023-02-22T01:03:05;94744.19;;;8.13;91.22
11878;BME280;5998;42.676;23.268;2023-02-22T01:05:32;94747.66;;;8.14;90.20
11878;BME280;5998;42.676;23.268;2023-02-22T01:08:00;94735.84;;;8.15;89.83
11878;BME280;5998;42.676;23.268;2023-02-22T01:10:28;94741.50;;;8.13;91.95
11878;BME280;5998;42.676;23.268;2023-02-22T01:12:56;94724.75;;;7.96;90.08
11878;BME280;5998;42.676;23.268;2023-02-22T01:15:26;94698.00;;;7.87;89.41
11878;BME280;5998;42.676;23.268;2023-02-22T01:17:56;94746.22;;;8.16;89.33
11878;BME280;5998;42.676;23.268;2023-02-22T01:20:26;94730.78;;;8.13;87.72
11878;BME280;5998;42.676;23.268;2023-02-22T01:22:55;94731.72;;;8.17;87.67
11878;BME280;5998;42.676;23.268;2023-02-22T01:25:24;94719.59;;;8.11;89.58
11878;BME280;5998;42.676;23.268;2023-02-22T01:27:52;94727.59;;;8.20;91.23
11878;BME280;5998;42.676;23.268;2023-02-22T01:30:20;94733.59;;;8.17;89.52
11878;BME280;5998;42.676;23.268;2023-02-22T01:32:48;94726.22;;;8.14;87.46
11878;BME280;5998;42.676;23.268;2023-02-22T01:35:18;94728.00;;;8.10;86.22
11878;BME280;5998;42.676;23.268;2023-02-22T01:37:46;94718.59;;;7.95;87.28
11878;BME280;5998;42.676;23.268;2023-02-22T01:40:18;94722.13;;;7.87;90.59
11878;BME280;5998;42.676;23.268;2023-02-22T01:42:48;94733.25;;;7.98;90.24
11878;BME280;5998;42.676;23.268;2023-02-22T01:45:41;94729.06;;;7.88;89.49
11878;BME280;5998;42.676;23.268;2023-02-22T01:48:12;94747.31;;;7.65;90.02
11878;BME280;5998;42.676;23.268;2023-02-22T01:50:41;94743.97;;;7.68;89.64
11878;BME280;5998;42.676;23.268;2023-02-22T01:53:14;94743.66;;;7.70;91.74
11878;BME280;5998;42.676;23.268;2023-02-22T01:55:42;94742.91;;;7.61;95.12
11878;BME280;5998;42.676;23.268;2023-02-22T01:58:10;94744.28;;;7.67;97.32
11878;BME280;5998;42.676;23.268;2023-02-22T02:00:39;94745.09;;;7.67;95.14
11878;BME280;5998;42.676;23.268;2023-02-22T02:03:10;94738.31;;;7.61;93.87
11878;BME280;5998;42.676;23.268;2023-02-22T02:05:39;94740.41;;;7.56;94.26
11878;BME280;5998;42.676;23.268;2023-02-22T02:08:13;94717.78;;;7.36;96.16
11878;BME280;5998;42.676;23.268;2023-02-22T02:10:43;94720.00;;;7.34;97.86
11878;BME280;5998;42.676;23.268;2023-02-22T02:13:09;94724.56;;;7.34;96.94
11878;BME280;5998;42.676;23.268;2023-02-22T02:15:37;94734.47;;;7.42;97.58
11878;BME280;5998;42.676;23.268;2023-02-22T02:18:06;94721.16;;;7.25;95.98
11878;BME280;5998;42.676;23.268;2023-02-22T02:20:43;94744.28;;;7.29;96.13
11878;BME280;5998;42.676;23.268;2023-02-22T02:23:43;94742.09;;;7.23;96.60
11878;BME280;5998;42.676;23.268;2023-02-22T02:26:54;94746.72;;;7.05;98.77
11878;BME280;5998;42.676;23.268;2023-02-22T02:30:09;94733.38;;;6.79;99.86
11878;BME280;5998;42.676;23.268;2023-02-22T02:32:56;94757.63;;;6.74;100.00
11878;BME280;5998;42.676;23.268;2023-02-22T02:35:38;94757.00;;;6.77;100.00
11878;BME280;5998;42.676;23.268;2023-02-22T02:38:12;94757.97;;;6.73;100.00
11878;BME280;5998;42.676;23.268;2023-02-22T02:40:45;94755.91;;;6.44;100.00
11878;BME280;5998;42.676;23.268;2023-02-22T02:43:19;94744.41;;;6.09;100.00
11878;BME280;5998;42.676;23.268;2023-02-22T02:45:51;94763.44;;;6.16;100.00
11878;BME280;5998;42.676;23.268;2023-02-22T02:48:24;94763.28;;;6.21;100.00
11878;BME280;5998;42.676;23.268;2023-02-22T02:50:55;94755.41;;;6.16;100.00
11878;BME280;5998;42.676;23.268;2023-02-22T02:53:26;94739.06;;;6.01;100.00
11878;BME280;5998;42.676;23.268;2023-02-22T02:55:57;94760.78;;;6.25;100.00
11878;BME280;5998;42.676;23.268;2023-02-22T02:58:24;94770.38;;;6.26;100.00
11878;BME280;5998;42.676;23.268;2023-02-22T03:00:53;94768.19;;;6.28;100.00
11878;BME280;5998;42.676;23.268;2023-02-22T03:03:50;94761.25;;;6.27;100.00
11878;BME280;5998;42.676;23.268;2023-02-22T03:06:35;94763.13;;;6.26;100.00
11878;BME280;5998;42.676;23.268;2023-02-22T03:09:13;94765.16;;;6.29;100.00
11878;BME280;5998;42.676;23.268;2023-02-22T03:11:50;94771.63;;;6.28;100.00
11878;BME280;5998;42.676;23.268;2023-02-22T03:14:31;94744.56;;;6.13;100.00
11878;BME280;5998;42.676;23.268;2023-02-22T03:17:04;94733.09;;;6.04;100.00
11878;BME280;5998;42.676;23.268;2023-02-22T03:19:37;94764.09;;;6.30;100.00
11878;BME280;5998;42.676;23.268;2023-02-22T03:22:10;94766.59;;;6.27;100.00
11878;BME280;5998;42.676;23.268;2023-02-22T03:24:45;94759.19;;;6.32;100.00
11878;BME280;5998;42.676;23.268;2023-02-22T03:27:21;94762.84;;;6.36;100.00
11878;BME280;5998;42.676;23.268;2023-02-22T03:29:50;94765.34;;;6.41;100.00
11878;BME280;5998;42.676;23.268;2023-02-22T03:32:21;94758.13;;;6.42;100.00
11878;BME280;5998;42.676;23.268;2023-02-22T03:34:53;94760.78;;;6.42;100.00
11878;BME280;5998;42.676;23.268;2023-02-22T03:37:24;94762.06;;;6.44;100.00
11878;BME280;5998;42.676;23.268;2023-02-22T03:39:54;94762.06;;;6.44;100.00
11878;BME280;5998;42.676;23.268;2023-02-22T03:42:24;94762.69;;;6.50;100.00
11878;BME280;5998;42.676;23.268;2023-02-22T03:44:54;94761.44;;;6.47;100.00
11878;BME280;5998;42.676;23.268;2023-02-22T03:47:34;94768.66;;;6.56;100.00
11878;BME280;5998;42.676;23.268;2023-02-22T03:50:09;94769.13;;;6.58;100.00
11878;BME280;5998;42.676;23.268;2023-02-22T03:52:40;94764.41;;;6.63;100.00
11878;BME280;5998;42.676;23.268;2023-02-22T03:55:07;94767.88;;;6.72;100.00
11878;BME280;5998;42.676;23.268;2023-02-22T03:57:38;94759.69;;;6.77;100.00
11878;BME280;5998;42.676;23.268;2023-02-22T04:00:08;94749.78;;;6.69;100.00
11878;BME280;5998;42.676;23.268;2023-02-22T04:02:36;94761.88;;;6.84;100.00
11878;BME280;5998;42.676;23.268;2023-02-22T04:05:03;94761.88;;;6.84;100.00
11878;BME280;5998;42.676;23.268;2023-02-22T04:07:31;94760.75;;;6.85;100.00
11878;BME280;5998;42.676;23.268;2023-02-22T04:09:57;94762.03;;;6.87;100.00
11878;BME280;5998;42.676;23.268;2023-02-22T04:12:26;94747.84;;;6.87;100.00
11878;BME280;5998;42.676;23.268;2023-02-22T04:14:53;94742.19;;;6.88;100.00
11878;BME280;5998;42.676;23.268;2023-02-22T04:17:20;94752.72;;;7.02;100.00
11878;BME280;5998;42.676;23.268;2023-02-22T04:19:47;94757.28;;;7.01;100.00
11878;BME280;5998;42.676;23.268;2023-02-22T04:22:13;94751.63;;;7.03;100.00
11878;BME280;5998;42.676;23.268;2023-02-22T04:24:41;94756.81;;;7.08;100.00
11878;BME280;5998;42.676;23.268;2023-02-22T04:27:08;94761.53;;;7.11;100.00
11878;BME280;5998;42.676;23.268;2023-02-22T04:29:35;94757.41;;;7.13;100.00
11878;BME280;5998;42.676;23.268;2023-02-22T04:32:02;94756.63;;;7.13;100.00
11878;BME280;5998;42.676;23.268;2023-02-22T04:34:28;94759.16;;;6.92;100.00
11878;BME280;5998;42.676;23.268;2023-02-22T04:36:55;94772.13;;;6.47;100.00
11878;BME280;5998;42.676;23.268;2023-02-22T04:39:22;94764.72;;;6.44;100.00
11878;BME280;5998;42.676;23.268;2023-02-22T04:41:50;94767.22;;;6.32;100.00
11878;BME280;5998;42.676;23.268;2023-02-22T04:44:16;94768.19;;;6.28;100.00
11878;BME280;5998;42.676;23.268;2023-02-22T04:46:43;94761.09;;;6.23;100.00
11878;BME280;5998;42.676;23.268;2023-02-22T04:49:11;94763.63;;;6.28;100.00
11878;BME280;5998;42.676;23.268;2023-02-22T04:51:37;94765.78;;;6.26;100.00
11878;BME280;5998;42.676;23.268;2023-02-22T04:54:05;94764.84;;;6.14;100.00
11878;BME280;5998;42.676;23.268;2023-02-22T04:56:32;94761.06;;;6.06;100.00
11878;BME280;5998;42.676;23.268;2023-02-22T04:59:00;94758.53;;;5.92;100.00
11878;BME280;5998;42.676;23.268;2023-02-22T05:01:30;94762.09;;;5.79;100.00
11878;BME280;5998;42.676;23.268;2023-02-22T05:03:58;94763.00;;;5.75;100.00
11878;BME280;5998;42.676;23.268;2023-02-22T05:06:24;94766.78;;;5.74;100.00
11878;BME280;5998;42.676;23.268;2023-02-22T05:08:51;94774.13;;;5.60;100.00
11878;BME280;5998;42.676;23.268;2023-02-22T05:11:18;94770.47;;;5.56;100.00
11878;BME280;5998;42.676;23.268;2023-02-22T05:13:45;94774.56;;;5.53;100.00
11878;BME280;5998;42.676;23.268;2023-02-22T05:16:13;94777.03;;;5.50;100.00
11878;BME280;5998;42.676;23.268;2023-02-22T05:18:40;94781.16;;;5.25;100.00
11878;BME280;5998;42.676;23.268;2023-02-22T05:21:07;94749.56;;;5.10;100.00
11878;BME280;5998;42.676;23.268;2023-02-22T05:23:34;94779.91;;;5.22;100.00
11878;BME280;5998;42.676;23.268;2023-02-22T05:26:00;94789.84;;;5.30;100.00
11878;BME280;5998;42.676;23.268;2023-02-22T05:28:27;94784.63;;;5.25;100.00
11878;BME280;5998;42.676;23.268;2023-02-22T05:30:54;94790.16;;;5.29;100.00
11878;BME280;5998;42.676;23.268;2023-02-22T05:33:22;94799.91;;;5.33;100.00
11878;BME280;5998;42.676;23.268;2023-02-22T05:35:49;94800.22;;;5.32;100.00
11878;BME280;5998;42.676;23.268;2023-02-22T05:38:16;94802.94;;;5.41;100.00
11878;BME280;5998;42.676;23.268;2023-02-22T05:40:43;94810.16;;;5.40;100.00
11878;BME280;5998;42.676;23.268;2023-02-22T05:43:09;94812.09;;;5.48;100.00
11878;BME280;5998;42.676;23.268;2023-02-22T05:45:36;94808.47;;;5.53;100.00
11878;BME280;5998;42.676;23.268;2023-02-22T05:48:03;94815.91;;;5.64;100.00
11878;BME280;5998;42.676;23.268;2023-02-22T05:50:32;94818.63;;;5.73;100.00
11878;BME280;5998;42.676;23.268;2023-02-22T05:52:59;94815.66;;;5.83;100.00
11878;BME280;5998;42.676;23.268;2023-02-22T05:55:26;94816.69;;;5.96;100.00
11878;BME280;5998;42.676;23.268;2023-02-22T05:57:53;94812.31;;;6.08;100.00
11878;BME280;5998;42.676;23.268;2023-02-22T06:00:21;94818.94;;;6.11;100.00
11878;BME280;5998;42.676;23.268;2023-02-22T06:02:53;94821.75;;;6.06;100.00
11878;BME280;5998;42.676;23.268;2023-02-22T06:05:19;94808.09;;;6.16;100.00
11878;BME280;5998;42.676;23.268;2023-02-22T06:07:47;94827.31;;;6.35;100.00
11878;BME280;5998;42.676;23.268;2023-02-22T06:10:15;94830.47;;;6.37;100.00
11878;BME280;5998;42.676;23.268;2023-02-22T06:12:42;94828.44;;;6.34;100.00
11878;BME280;5998;42.676;23.268;2023-02-22T06:15:09;94834.41;;;6.31;100.00
11878;BME280;5998;42.676;23.268;2023-02-22T06:17:35;94812.03;;;6.18;100.00
11878;BME280;5998;42.676;23.268;2023-02-22T06:20:04;94840.53;;;6.48;100.00
11878;BME280;5998;42.676;23.268;2023-02-22T06:22:32;94830.84;;;6.70;100.00
11878;BME280;5998;42.676;23.268;2023-02-22T06:25:01;94827.50;;;6.90;100.00
11878;BME280;5998;42.676;23.268;2023-02-22T06:27:29;94828.44;;;7.20;100.00
11878;BME280;5998;42.676;23.268;2023-02-22T06:29:56;94825.41;;;7.38;100.00
11878;BME280;5998;42.676;23.268;2023-02-22T06:32:23;94797.84;;;7.38;100.00
11878;BME280;5998;42.676;23.268;2023-02-22T06:34:50;94822.94;;;7.80;100.00
11878;BME280;5998;42.676;23.268;2023-02-22T06:37:16;94824.41;;;7.98;100.00
11878;BME280;5998;42.676;23.268;2023-02-22T06:39:43;94819.44;;;8.17;100.00
11878;BME280;5998;42.676;23.268;2023-02-22T06:42:11;94813.66;;;8.36;100.00
11878;BME280;5998;42.676;23.268;2023-02-22T06:44:38;94810.47;;;8.42;100.00
11878;BME280;5998;42.676;23.268;2023-02-22T06:47:04;94814.28;;;8.62;100.00
11878;BME280;5998;42.676;23.268;2023-02-22T06:49:31;94813.66;;;8.65;96.56
11878;BME280;5998;42.676;23.268;2023-02-22T06:51:58;94810.69;;;8.37;95.21
11878;BME280;5998;42.676;23.268;2023-02-22T06:54:24;94822.91;;;8.17;96.37
11878;BME280;5998;42.676;23.268;2023-02-22T06:56:51;94822.44;;;7.78;98.44
11878;BME280;5998;42.676;23.268;2023-02-22T06:59:20;94826.19;;;7.94;99.04
11878;BME280;5998;42.676;23.268;2023-02-22T07:01:48;94831.41;;;7.90;98.77
11878;BME280;5998;42.676;23.268;2023-02-22T07:04:15;94821.50;;;7.82;100.00
11878;BME280;5998;42.676;23.268;2023-02-22T07:06:44;94830.22;;;8.00;94.69
11878;BME280;5998;42.676;23.268;2023-02-22T07:09:11;94794.19;;;7.80;94.70
11878;BME280;5998;42.676;23.268;2023-02-22T07:11:38;94820.22;;;8.17;93.59
11878;BME280;5998;42.676;23.268;2023-02-22T07:14:04;94811.13;;;8.39;92.65
11878;BME280;5998;42.676;23.268;2023-02-22T07:16:32;94814.16;;;8.79;94.72
11878;BME280;5998;42.676;23.268;2023-02-22T07:18:59;94822.78;;;9.05;89.86
11878;BME280;5998;42.676;23.268;2023-02-22T07:21:26;94817.00;;;9.48;88.71
11878;BME280;5998;42.676;23.268;2023-02-22T07:23:54;94827.44;;;9.62;83.79
11878;BME280;5998;42.676;23.268;2023-02-22T07:26:22;94824.44;;;9.75;82.26
11878;BME280;5998;42.676;23.268;2023-02-22T07:28:49;94821.81;;;9.99;82.10
11878;BME280;5998;42.676;23.268;2023-02-22T07:31:16;94828.44;;;10.14;79.55
11878;BME280;5998;42.676;23.268;2023-02-22T07:33:44;94816.22;;;10.17;79.57
11878;BME280;5998;42.676;23.268;2023-02-22T07:36:11;94811.84;;;10.48;80.54
11878;BME280;5998;42.676;23.268;2023-02-22T07:38:42;94811.56;;;10.78;77.75
11878;BME280;5998;42.676;23.268;2023-02-22T07:41:08;94818.03;;;11.01;75.31
11878;BME280;5998;42.676;23.268;2023-02-22T07:43:35;94815.19;;;11.09;78.10
11878;BME280;5998;42.676;23.268;2023-02-22T07:46:02;94785.91;;;11.23;72.80
11878;BME280;5998;42.676;23.268;2023-02-22T07:48:30;94788.72;;;11.70;75.17
11878;BME280;5998;42.676;23.268;2023-02-22T07:50:58;94797.63;;;12.02;71.61
11878;BME280;5998;42.676;23.268;2023-02-22T07:53:27;94805.03;;;12.21;68.92
11878;BME280;5998;42.676;23.268;2023-02-22T07:55:55;94799.25;;;12.38;68.23
11878;BME280;5998;42.676;23.268;2023-02-22T07:58:24;94800.75;;;12.70;67.54
11878;BME280;5998;42.676;23.268;2023-02-22T08:00:52;94790.84;;;12.93;70.41
11878;BME280;5998;42.676;23.268;2023-02-22T08:03:21;94796.06;;;13.21;65.12
11878;BME280;5998;42.676;23.268;2023-02-22T08:05:50;94795.78;;;13.26;66.42
11878;BME280;5998;42.676;23.268;2023-02-22T08:08:18;94790.41;;;13.49;63.99
11878;BME280;5998;42.676;23.268;2023-02-22T08:10:46;94794.84;;;14.02;69.21
11878;BME280;5998;42.676;23.268;2023-02-22T08:13:13;94785.78;;;13.91;62.17
11878;BME280;5998;42.676;23.268;2023-02-22T08:15:41;94791.59;;;14.16;61.23
11878;BME280;5998;42.676;23.268;2023-02-22T08:18:09;94800.84;;;14.15;59.66
11878;BME280;5998;42.676;23.268;2023-02-22T08:20:37;94792.03;;;13.95;59.07
11878;BME280;5998;42.676;23.268;2023-02-22T08:23:05;94780.75;;;13.71;59.99
11878;BME280;5998;42.676;23.268;2023-02-22T08:25:33;94794.84;;;13.80;62.41
11878;BME280;5998;42.676;23.268;2023-02-22T08:28:02;94787.28;;;13.89;59.58
11878;BME280;5998;42.676;23.268;2023-02-22T08:30:30;94790.97;;;14.26;59.09
11878;BME280;5998;42.676;23.268;2023-02-22T08:32:59;94785.41;;;13.93;58.63
11878;BME280;5998;42.676;23.268;2023-02-22T08:35:27;94781.97;;;13.96;58.13
11878;BME280;5998;42.676;23.268;2023-02-22T08:37:57;94790.72;;;14.08;58.78
11878;BME280;5998;42.676;23.268;2023-02-22T08:40:26;94789.47;;;14.29;58.79
11878;BME280;5998;42.676;23.268;2023-02-22T08:42:54;94776.81;;;14.10;57.85
11878;BME280;5998;42.676;23.268;2023-02-22T08:45:21;94782.22;;;14.10;58.05
11878;BME280;5998;42.676;23.268;2023-02-22T08:47:48;94781.88;;;14.11;58.47
11878;BME280;5998;42.676;23.268;2023-02-22T08:50:18;94781.66;;;14.24;58.74
11878;BME280;5998;42.676;23.268;2023-02-22T08:52:45;94767.53;;;14.60;61.32
11878;BME280;5998;42.676;23.268;2023-02-22T08:55:12;94774.41;;;14.80;59.45
11878;BME280;5998;42.676;23.268;2023-02-22T08:57:39;94776.13;;;14.65;58.31
11878;BME280;5998;42.676;23.268;2023-02-22T09:00:08;94773.69;;;14.83;58.28
11878;BME280;5998;42.676;23.268;2023-02-22T09:02:35;94773.38;;;14.92;57.15
11878;BME280;5998;42.676;23.268;2023-02-22T09:05:02;94769.19;;;14.94;57.30
11878;BME280;5998;42.676;23.268;2023-02-22T09:07:30;94773.78;;;15.23;58.54
11878;BME280;5998;42.676;23.268;2023-02-22T09:09:56;94776.56;;;15.27;56.80
11878;BME280;5998;42.676;23.268;2023-02-22T09:12:23;94770.69;;;15.21;56.15
11878;BME280;5998;42.676;23.268;2023-02-22T09:14:50;94764.75;;;15.46;56.33
11878;BME280;5998;42.676;23.268;2023-02-22T09:17:18;94751.69;;;15.55;57.56
11878;BME280;5998;42.676;23.268;2023-02-22T09:19:44;94761.94;;;16.12;57.53
11878;BME280;5998;42.676;23.268;2023-02-22T09:22:11;94761.88;;;15.65;53.80
11878;BME280;5998;42.676;23.268;2023-02-22T09:24:38;94765.19;;;15.88;54.17
11878;BME280;5998;42.676;23.268;2023-02-22T09:27:07;94764.09;;;15.96;53.73
11878;BME280;5998;42.676;23.268;2023-02-22T09:29:36;94768.91;;;15.69;52.99
11878;BME280;5998;42.676;23.268;2023-02-22T09:32:04;94753.19;;;15.52;54.16
11878;BME280;5998;42.676;23.268;2023-02-22T09:34:32;94754.28;;;15.81;56.84
11878;BME280;5998;42.676;23.268;2023-02-22T09:37:00;94752.41;;;15.88;53.23
11878;BME280;5998;42.676;23.268;2023-02-22T09:39:26;94759.41;;;15.89;52.36
11878;BME280;5998;42.676;23.268;2023-02-22T09:42:03;94755.66;;;16.05;52.38
11878;BME280;5998;42.676;23.268;2023-02-22T09:44:36;94752.13;;;16.51;52.17
11878;BME280;5998;42.676;23.268;2023-02-22T09:47:04;94749.50;;;16.59;52.82
11878;BME280;5998;42.676;23.268;2023-02-22T09:49:39;94748.31;;;16.56;50.22
11878;BME280;5998;42.676;23.268;2023-02-22T09:52:16;94749.50;;;16.59;50.71
11878;BME280;5998;42.676;23.268;2023-02-22T09:54:46;94743.19;;;16.51;51.58
11878;BME280;5998;42.676;23.268;2023-02-22T09:57:20;94746.84;;;16.69;50.58
11878;BME280;5998;42.676;23.268;2023-02-22T09:59:56;94746.69;;;16.48;50.76
11878;BME280;5998;42.676;23.268;2023-02-22T10:02:30;94739.81;;;16.61;51.64
11878;BME280;5998;42.676;23.268;2023-02-22T10:05:03;94715.91;;;16.33;50.45
11878;BME280;5998;42.676;23.268;2023-02-22T10:07:36;94727.00;;;16.62;50.79
11878;BME280;5998;42.676;23.268;2023-02-22T10:10:06;94726.28;;;16.79;51.81
11878;BME280;5998;42.676;23.268;2023-02-22T10:12:45;94717.47;;;17.06;52.82
11878;BME280;5998;42.676;23.268;2023-02-22T10:15:32;94709.03;;;17.36;50.68
11878;BME280;5998;42.676;23.268;2023-02-22T10:18:19;94708.66;;;17.38;48.68
11878;BME280;5998;42.676;23.268;2023-02-22T10:20:56;94694.16;;;17.09;48.92
11878;BME280;5998;42.676;23.268;2023-02-22T10:23:31;94679.81;;;17.12;51.10
11878;BME280;5998;42.676;23.268;2023-02-22T10:26:12;94693.13;;;17.49;48.34
11878;BME280;5998;42.676;23.268;2023-02-22T10:28:42;94687.75;;;17.63;48.98
11878;BME280;5998;42.676;23.268;2023-02-22T10:31:19;94683.84;;;17.60;48.69
11878;BME280;5998;42.676;23.268;2023-02-22T10:33:52;94682.69;;;17.68;47.46
11878;BME280;5998;42.676;23.268;2023-02-22T10:36:22;94672.97;;;17.89;47.07
11878;BME280;5998;42.676;23.268;2023-02-22T10:38:54;94670.63;;;17.77;45.86
11878;BME280;5998;42.676;23.268;2023-02-22T10:41:27;94672.56;;;17.76;45.57
11878;BME280;5998;42.676;23.268;2023-02-22T10:43:54;94644.94;;;17.92;48.82
11878;BME280;5998;42.676;23.268;2023-02-22T10:46:21;94653.09;;;18.02;46.87
11878;BME280;5998;42.676;23.268;2023-02-22T10:48:51;94662.41;;;18.29;44.37
11878;BME280;5998;42.676;23.268;2023-02-22T10:51:21;94649.63;;;17.84;44.08
11878;BME280;5998;42.676;23.268;2023-02-22T10:53:57;94646.88;;;17.59;43.87
11878;BME280;5998;42.676;23.268;2023-02-22T10:56:25;94650.38;;;17.56;43.38
11878;BME280;5998;42.676;23.268;2023-02-22T10:58:54;94647.28;;;17.54;45.08
11878;BME280;5998;42.676;23.268;2023-02-22T11:01:29;94643.00;;;17.71;44.28
11878;BME280;5998;42.676;23.268;2023-02-22T11:04:03;94643.78;;;18.03;45.45
11878;BME280;5998;42.676;23.268;2023-02-22T11:06:33;94634.00;;;18.27;45.50
11878;BME280;5998;42.676;23.268;2023-02-22T11:09:06;94625.41;;;18.43;45.50
11878;BME280;5998;42.676;23.268;2023-02-22T11:11:36;94625.38;;;18.46;43.13
11878;BME280;5998;42.676;23.268;2023-02-22T11:14:04;94633.25;;;18.09;43.55
11878;BME280;5998;42.676;23.268;2023-02-22T11:16:33;94622.00;;;17.93;43.39
11878;BME280;5998;42.676;23.268;2023-02-22T11:19:08;94623.16;;;17.78;44.07
11878;BME280;5998;42.676;23.268;2023-02-22T11:21:38;94617.63;;;18.31;45.10
11878;BME280;5998;42.676;23.268;2023-02-22T11:24:08;94618.44;;;18.31;44.30
11878;BME280;5998;42.676;23.268;2023-02-22T11:26:39;94608.63;;;18.55;43.48
11878;BME280;5998;42.676;23.268;2023-02-22T11:29:18;94605.91;;;18.62;43.29
11878;BME280;5998;42.676;23.268;2023-02-22T11:31:47;94601.25;;;18.52;41.52
11878;BME280;5998;42.676;23.268;2023-02-22T11:34:27;94599.72;;;18.51;43.19
11878;BME280;5998;42.676;23.268;2023-02-22T11:37:14;94597.75;;;18.44;40.96
11878;BME280;5998;42.676;23.268;2023-02-22T11:39:41;94603.28;;;18.12;41.22
11878;BME280;5998;42.676;23.268;2023-02-22T11:42:20;94598.19;;;18.28;41.02
11878;BME280;5998;42.676;23.268;2023-02-22T11:45:07;94594.31;;;18.19;41.01
11878;BME280;5998;42.676;23.268;2023-02-22T11:47:34;94601.72;;;18.15;40.61
11878;BME280;5998;42.676;23.268;2023-02-22T11:50:01;94596.22;;;18.36;40.54
11878;BME280;5998;42.676;23.268;2023-02-22T11:52:32;94583.81;;;18.10;40.55
11878;BME280;5998;42.676;23.268;2023-02-22T11:55:14;94583.00;;;18.27;41.23
11878;BME280;5998;42.676;23.268;2023-02-22T11:57:54;94579.06;;;18.53;40.46
11878;BME280;5998;42.676;23.268;2023-02-22T12:00:36;94574.28;;;18.75;39.86
11878;BME280;5998;42.676;23.268;2023-02-22T12:03:23;94565.72;;;18.69;39.60
11878;BME280;5998;42.676;23.268;2023-02-22T12:06:13;94558.25;;;18.84;40.02
11878;BME280;5998;42.676;23.268;2023-02-22T12:08:53;94566.69;;;19.07;39.25
11878;BME280;5998;42.676;23.268;2023-02-22T12:11:26;94568.97;;;19.19;38.38
11878;BME280;5998;42.676;23.268;2023-02-22T12:14:03;94559.34;;;18.97;38.15
11878;BME280;5998;42.676;23.268;2023-02-22T12:16:41;94575.44;;;18.77;37.66
11878;BME280;5998;42.676;23.268;2023-02-22T12:19:19;94563.59;;;19.05;40.68
11878;BME280;5998;42.676;23.268;2023-02-22T12:21:53;94561.97;;;19.15;38.45
11878;BME280;5998;42.676;23.268;2023-02-22T12:24:27;94557.59;;;19.28;38.06
11878;BME280;5998;42.676;23.268;2023-02-22T12:27:00;94553.38;;;19.16;37.42
11878;BME280;5998;42.676;23.268;2023-02-22T12:29:33;94551.75;;;19.26;37.06
11878;BME280;5998;42.676;23.268;2023-02-22T12:32:04;94552.03;;;19.42;39.33
11878;BME280;5998;42.676;23.268;2023-02-22T12:34:36;94546.06;;;19.03;37.55
11878;BME280;5998;42.676;23.268;2023-02-22T12:37:15;94548.78;;;19.06;37.67
11878;BME280;5998;42.676;23.268;2023-02-22T12:39:55;94546.00;;;19.13;37.53
11878;BME280;5998;42.676;23.268;2023-02-22T12:42:29;94539.03;;;19.05;38.35
11878;BME280;5998;42.676;23.268;2023-02-22T12:45:02;94542.94;;;19.04;38.10
11878;BME280;5998;42.676;23.268;2023-02-22T12:47:37;94532.38;;;19.10;39.45
11878;BME280;5998;42.676;23.268;2023-02-22T12:50:11;94549.59;;;18.96;37.87
11878;BME280;5998;42.676;23.268;2023-02-22T12:52:45;94537.75;;;18.41;39.26
11878;BME280;5998;42.676;23.268;2023-02-22T12:55:20;94532.31;;;18.51;41.45
11878;BME280;5998;42.676;23.268;2023-02-22T12:57:54;94536.81;;;18.86;38.92
11878;BME280;5998;42.676;23.268;2023-02-22T13:02:58;94533.81;;;18.63;37.49
11878;BME280;5998;42.676;23.268;2023-02-22T13:05:28;94533.50;;;18.50;38.33
11878;BME280;5998;42.676;23.268;2023-02-22T13:08:18;94533.47;;;18.54;37.69
11878;BME280;5998;42.676;23.268;2023-02-22T13:11:02;94532.94;;;18.80;37.63
11878;BME280;5998;42.676;23.268;2023-02-22T13:13:36;94534.09;;;18.86;36.76
11878;BME280;5998;42.676;23.268;2023-02-22T13:16:19;94520.88;;;18.74;36.50
11878;BME280;5998;42.676;23.268;2023-02-22T13:18:51;94522.56;;;18.47;36.11
11878;BME280;5998;42.676;23.268;2023-02-22T13:21:28;94522.22;;;18.48;37.13
11878;BME280;5998;42.676;23.268;2023-02-22T13:24:01;94532.84;;;18.00;37.88